sensor_id;sensor_type;location;lat;lon;timestamp;P1;durP1;ratioP1;P2;durP2;ratioP2
48993;SDS011;34804;49.214;12.276;2023-07-24T00:00:01;10.02;;;4.95;;
48993;SDS011;34804;49.214;12.276;2023-07-24T00:02:29;9.13;;;4.80;;
48993;SDS011;34804;49.214;12.276;2023-07-24T00:04:56;9.32;;;4.57;;
48993;SDS011;34804;49.214;12.276;2023-07-24T00:07:23;9.88;;;5.15;;
48993;SDS011;34804;49.214;12.276;2023-07-24T00:09:51;14.25;;;5.22;;
48993;SDS011;34804;49.214;12.276;2023-07-24T00:12:19;9.38;;;5.22;;
48993;SDS011;34804;49.214;12.276;2023-07-24T00:14:45;10.00;;;5.28;;
48993;SDS011;34804;49.214;12.276;2023-07-24T00:17:12;10.90;;;5.47;;
48993;SDS011;34804;49.214;12.276;2023-07-24T00:19:39;10.27;;;5.35;;
48993;SDS011;34804;49.214;12.276;2023-07-24T00:22:06;9.35;;;5.10;;
48993;SDS011;34804;49.214;12.276;2023-07-24T00:24:33;10.50;;;5.50;;
48993;SDS011;34804;49.214;12.276;2023-07-24T00:27:00;11.25;;;5.20;;
48993;SDS011;34804;49.214;12.276;2023-07-24T00:29:27;12.38;;;5.68;;
48993;SDS011;34804;49.214;12.276;2023-07-24T00:31:53;11.02;;;5.75;;
48993;SDS011;34804;49.214;12.276;2023-07-24T00:34:20;10.60;;;5.55;;
48993;SDS011;34804;49.214;12.276;2023-07-24T00:36:47;10.60;;;5.60;;
48993;SDS011;34804;49.214;12.276;2023-07-24T00:39:14;10.23;;;5.18;;
48993;SDS011;34804;49.214;12.276;2023-07-24T00:41:43;10.07;;;5.43;;
48993;SDS011;34804;49.214;12.276;2023-07-24T00:44:09;10.02;;;5.22;;
48993;SDS011;34804;49.214;12.276;2023-07-24T00:46:36;12.07;;;5.50;;
48993;SDS011;34804;49.214;12.276;2023-07-24T00:49:04;11.32;;;5.70;;
48993;SDS011;34804;49.214;12.276;2023-07-24T00:51:31;10.00;;;5.57;;
48993;SDS011;34804;49.214;12.276;2023-07-24T00:54:00;12.65;;;5.78;;
48993;SDS011;34804;49.214;12.276;2023-07-24T00:56:28;13.60;;;5.22;;
48993;SDS011;34804;49.214;12.276;2023-07-24T00:58:59;11.98;;;5.28;;
48993;SDS011;34804;49.214;12.276;2023-07-24T01:01:26;13.40;;;7.25;;
48993;SDS011;34804;49.214;12.276;2023-07-24T01:03:53;14.75;;;8.18;;
48993;SDS011;34804;49.214;12.276;2023-07-24T01:06:21;11.95;;;7.60;;
48993;SDS011;34804;49.214;12.276;2023-07-24T01:08:48;13.57;;;6.93;;
48993;SDS011;34804;49.214;12.276;2023-07-24T01:11:19;9.88;;;5.60;;
48993;SDS011;34804;49.214;12.276;2023-07-24T01:13:52;14.73;;;6.20;;
48993;SDS011;34804;49.214;12.276;2023-07-24T01:16:26;11.23;;;5.35;;
48993;SDS011;34804;49.214;12.276;2023-07-24T01:18:59;12.57;;;6.00;;
48993;SDS011;34804;49.214;12.276;2023-07-24T01:21:33;11.90;;;5.30;;
48993;SDS011;34804;49.214;12.276;2023-07-24T01:24:16;8.82;;;5.50;;
48993;SDS011;34804;49.214;12.276;2023-07-24T01:26:49;14.25;;;5.80;;
48993;SDS011;34804;49.214;12.276;2023-07-24T01:29:17;12.65;;;6.13;;
48993;SDS011;34804;49.214;12.276;2023-07-24T01:31:46;13.32;;;6.50;;
48993;SDS011;34804;49.214;12.276;2023-07-24T01:34:13;13.13;;;5.63;;
48993;SDS011;34804;49.214;12.276;2023-07-24T01:36:39;11.38;;;6.18;;
48993;SDS011;34804;49.214;12.276;2023-07-24T01:39:07;12.38;;;6.15;;
48993;SDS011;34804;49.214;12.276;2023-07-24T01:41:35;11.27;;;6.07;;
48993;SDS011;34804;49.214;12.276;2023-07-24T01:44:02;13.35;;;6.60;;
48993;SDS011;34804;49.214;12.276;2023-07-24T01:46:29;12.55;;;5.55;;
48993;SDS011;34804;49.214;12.276;2023-07-24T01:48:56;11.98;;;6.40;;
48993;SDS011;34804;49.214;12.276;2023-07-24T01:51:24;12.85;;;6.55;;
48993;SDS011;34804;49.214;12.276;2023-07-24T01:53:50;13.32;;;6.40;;
48993;SDS011;34804;49.214;12.276;2023-07-24T01:56:17;11.20;;;6.53;;
48993;SDS011;34804;49.214;12.276;2023-07-24T01:58:44;15.43;;;7.50;;
48993;SDS011;34804;49.214;12.276;2023-07-24T02:01:11;14.93;;;7.53;;
48993;SDS011;34804;49.214;12.276;2023-07-24T02:03:38;11.18;;;6.80;;
48993;SDS011;34804;49.214;12.276;2023-07-24T02:06:05;12.10;;;5.78;;
48993;SDS011;34804;49.214;12.276;2023-07-24T02:08:32;13.13;;;6.45;;
48993;SDS011;34804;49.214;12.276;2023-07-24T02:10:59;11.63;;;7.00;;
48993;SDS011;34804;49.214;12.276;2023-07-24T02:13:26;12.65;;;6.15;;
48993;SDS011;34804;49.214;12.276;2023-07-24T02:15:53;13.98;;;6.93;;
48993;SDS011;34804;49.214;12.276;2023-07-24T02:18:20;13.52;;;6.82;;
48993;SDS011;34804;49.214;12.276;2023-07-24T02:20:50;13.68;;;7.20;;
48993;SDS011;34804;49.214;12.276;2023-07-24T02:23:17;14.40;;;7.15;;
48993;SDS011;34804;49.214;12.276;2023-07-24T02:25:44;11.43;;;6.80;;
48993;SDS011;34804;49.214;12.276;2023-07-24T02:28:11;13.93;;;7.45;;
48993;SDS011;34804;49.214;12.276;2023-07-24T02:30:38;14.20;;;7.32;;
48993;SDS011;34804;49.214;12.276;2023-07-24T02:33:05;11.68;;;7.05;;
48993;SDS011;34804;49.214;12.276;2023-07-24T02:35:37;13.57;;;7.13;;
48993;SDS011;34804;49.214;12.276;2023-07-24T02:38:08;15.15;;;8.07;;
48993;SDS011;34804;49.214;12.276;2023-07-24T02:40:35;11.80;;;6.75;;
48993;SDS011;34804;49.214;12.276;2023-07-24T02:43:03;15.38;;;7.93;;
48993;SDS011;34804;49.214;12.276;2023-07-24T02:45:34;11.68;;;7.45;;
48993;SDS011;34804;49.214;12.276;2023-07-24T02:48:02;11.95;;;6.70;;
48993;SDS011;34804;49.214;12.276;2023-07-24T02:50:29;12.20;;;6.28;;
48993;SDS011;34804;49.214;12.276;2023-07-24T02:52:56;12.75;;;7.13;;
48993;SDS011;34804;49.214;12.276;2023-07-24T02:55:22;13.98;;;7.00;;
48993;SDS011;34804;49.214;12.276;2023-07-24T02:57:49;11.85;;;6.68;;
48993;SDS011;34804;49.214;12.276;2023-07-24T03:00:17;11.02;;;6.30;;
48993;SDS011;34804;49.214;12.276;2023-07-24T03:02:44;13.60;;;7.20;;
48993;SDS011;34804;49.214;12.276;2023-07-24T03:05:10;14.23;;;7.97;;
48993;SDS011;34804;49.214;12.276;2023-07-24T03:07:37;15.93;;;7.63;;
48993;SDS011;34804;49.214;12.276;2023-07-24T03:10:04;12.82;;;7.53;;
48993;SDS011;34804;49.214;12.276;2023-07-24T03:12:31;15.45;;;7.38;;
48993;SDS011;34804;49.214;12.276;2023-07-24T03:14:58;12.02;;;7.18;;
48993;SDS011;34804;49.214;12.276;2023-07-24T03:17:25;12.15;;;6.72;;
48993;SDS011;34804;49.214;12.276;2023-07-24T03:19:53;11.68;;;6.68;;
48993;SDS011;34804;49.214;12.276;2023-07-24T03:22:20;12.68;;;7.93;;
48993;SDS011;34804;49.214;12.276;2023-07-24T03:24:47;12.85;;;7.65;;
48993;SDS011;34804;49.214;12.276;2023-07-24T03:27:14;12.88;;;6.88;;
48993;SDS011;34804;49.214;12.276;2023-07-24T03:29:41;12.57;;;7.03;;
48993;SDS011;34804;49.214;12.276;2023-07-24T03:32:08;11.20;;;6.55;;
48993;SDS011;34804;49.214;12.276;2023-07-24T03:34:34;10.80;;;6.40;;
48993;SDS011;34804;49.214;12.276;2023-07-24T03:37:01;12.20;;;6.10;;
48993;SDS011;34804;49.214;12.276;2023-07-24T03:39:28;12.57;;;6.72;;
48993;SDS011;34804;49.214;12.276;2023-07-24T03:41:55;10.57;;;6.30;;
48993;SDS011;34804;49.214;12.276;2023-07-24T03:44:22;12.05;;;6.18;;
48993;SDS011;34804;49.214;12.276;2023-07-24T03:46:49;12.13;;;6.47;;
48993;SDS011;34804;49.214;12.276;2023-07-24T03:49:15;14.50;;;6.50;;
48993;SDS011;34804;49.214;12.276;2023-07-24T03:51:42;11.77;;;6.80;;
48993;SDS011;34804;49.214;12.276;2023-07-24T03:54:09;13.43;;;6.60;;
48993;SDS011;34804;49.214;12.276;2023-07-24T03:56:36;9.85;;;5.97;;
48993;SDS011;34804;49.214;12.276;2023-07-24T03:59:03;10.10;;;6.00;;
48993;SDS011;34804;49.214;12.276;2023-07-24T04:01:30;13.40;;;7.13;;
48993;SDS011;34804;49.214;12.276;2023-07-24T04:03:57;12.55;;;6.65;;
48993;SDS011;34804;49.214;12.276;2023-07-24T04:06:25;13.55;;;6.65;;
48993;SDS011;34804;49.214;12.276;2023-07-24T04:08:52;13.10;;;7.10;;
48993;SDS011;34804;49.214;12.276;2023-07-24T04:11:19;16.63;;;7.15;;
48993;SDS011;34804;49.214;12.276;2023-07-24T04:13:45;12.35;;;6.68;;
48993;SDS011;34804;49.214;12.276;2023-07-24T04:16:12;12.20;;;7.18;;
48993;SDS011;34804;49.214;12.276;2023-07-24T04:18:39;12.93;;;6.35;;
48993;SDS011;34804;49.214;12.276;2023-07-24T04:21:06;12.02;;;6.78;;
48993;SDS011;34804;49.214;12.276;2023-07-24T04:23:33;12.10;;;6.47;;
48993;SDS011;34804;49.214;12.276;2023-07-24T04:25:59;11.68;;;6.65;;
48993;SDS011;34804;49.214;12.276;2023-07-24T04:28:26;13.32;;;7.28;;
48993;SDS011;34804;49.214;12.276;2023-07-24T04:30:53;14.20;;;6.78;;
48993;SDS011;34804;49.214;12.276;2023-07-24T04:33:20;14.15;;;7.60;;
48993;SDS011;34804;49.214;12.276;2023-07-24T04:35:48;11.95;;;6.68;;
48993;SDS011;34804;49.214;12.276;2023-07-24T04:38:15;15.88;;;6.43;;
48993;SDS011;34804;49.214;12.276;2023-07-24T04:40:45;10.13;;;6.20;;
48993;SDS011;34804;49.214;12.276;2023-07-24T04:43:12;13.15;;;7.03;;
48993;SDS011;34804;49.214;12.276;2023-07-24T04:45:39;14.65;;;6.63;;
48993;SDS011;34804;49.214;12.276;2023-07-24T04:48:06;15.52;;;7.28;;
48993;SDS011;34804;49.214;12.276;2023-07-24T04:50:33;11.52;;;6.13;;
48993;SDS011;34804;49.214;12.276;2023-07-24T04:53:00;16.13;;;7.05;;
48993;SDS011;34804;49.214;12.276;2023-07-24T04:55:26;14.30;;;7.20;;
48993;SDS011;34804;49.214;12.276;2023-07-24T04:57:53;15.88;;;6.18;;
48993;SDS011;34804;49.214;12.276;2023-07-24T05:00:20;14.65;;;6.68;;
48993;SDS011;34804;49.214;12.276;2023-07-24T05:02:47;12.85;;;6.60;;
48993;SDS011;34804;49.214;12.276;2023-07-24T05:05:14;12.25;;;7.45;;
48993;SDS011;34804;49.214;12.276;2023-07-24T05:07:41;13.75;;;8.25;;
48993;SDS011;34804;49.214;12.276;2023-07-24T05:10:07;17.08;;;7.75;;
48993;SDS011;34804;49.214;12.276;2023-07-24T05:12:34;15.77;;;7.25;;
48993;SDS011;34804;49.214;12.276;2023-07-24T05:15:01;12.63;;;6.82;;
48993;SDS011;34804;49.214;12.276;2023-07-24T05:17:28;16.05;;;7.30;;
48993;SDS011;34804;49.214;12.276;2023-07-24T05:19:55;12.85;;;6.57;;
48993;SDS011;34804;49.214;12.276;2023-07-24T05:22:22;11.57;;;6.93;;
48993;SDS011;34804;49.214;12.276;2023-07-24T05:24:49;15.07;;;7.55;;
48993;SDS011;34804;49.214;12.276;2023-07-24T05:27:16;14.18;;;7.72;;
48993;SDS011;34804;49.214;12.276;2023-07-24T05:29:43;13.40;;;6.60;;
48993;SDS011;34804;49.214;12.276;2023-07-24T05:32:11;15.65;;;7.80;;
48993;SDS011;34804;49.214;12.276;2023-07-24T05:34:37;16.35;;;7.30;;
48993;SDS011;34804;49.214;12.276;2023-07-24T05:37:05;14.32;;;7.07;;
48993;SDS011;34804;49.214;12.276;2023-07-24T05:39:32;15.30;;;7.10;;
48993;SDS011;34804;49.214;12.276;2023-07-24T05:41:58;13.50;;;6.80;;
48993;SDS011;34804;49.214;12.276;2023-07-24T05:44:25;13.57;;;7.10;;
48993;SDS011;34804;49.214;12.276;2023-07-24T05:46:52;14.48;;;8.20;;
48993;SDS011;34804;49.214;12.276;2023-07-24T05:49:19;12.73;;;7.53;;
48993;SDS011;34804;49.214;12.276;2023-07-24T05:51:46;16.45;;;7.75;;
48993;SDS011;34804;49.214;12.276;2023-07-24T05:54:12;13.75;;;8.20;;
48993;SDS011;34804;49.214;12.276;2023-07-24T05:56:39;15.68;;;8.60;;
48993;SDS011;34804;49.214;12.276;2023-07-24T05:59:06;18.35;;;8.68;;
48993;SDS011;34804;49.214;12.276;2023-07-24T06:01:33;13.32;;;7.35;;
48993;SDS011;34804;49.214;12.276;2023-07-24T06:04:00;15.52;;;6.95;;
48993;SDS011;34804;49.214;12.276;2023-07-24T06:06:27;16.13;;;7.35;;
48993;SDS011;34804;49.214;12.276;2023-07-24T06:08:55;13.10;;;7.18;;
48993;SDS011;34804;49.214;12.276;2023-07-24T06:11:22;17.13;;;6.85;;
48993;SDS011;34804;49.214;12.276;2023-07-24T06:13:49;17.55;;;7.18;;
48993;SDS011;34804;49.214;12.276;2023-07-24T06:16:16;20.23;;;7.30;;
48993;SDS011;34804;49.214;12.276;2023-07-24T06:18:43;11.75;;;6.63;;
48993;SDS011;34804;49.214;12.276;2023-07-24T06:21:09;13.10;;;6.88;;
48993;SDS011;34804;49.214;12.276;2023-07-24T06:23:36;12.07;;;6.60;;
48993;SDS011;34804;49.214;12.276;2023-07-24T06:26:06;12.57;;;6.68;;
48993;SDS011;34804;49.214;12.276;2023-07-24T06:28:32;12.40;;;6.32;;
48993;SDS011;34804;49.214;12.276;2023-07-24T06:30:59;16.73;;;6.72;;
48993;SDS011;34804;49.214;12.276;2023-07-24T06:33:26;14.15;;;6.30;;
48993;SDS011;34804;49.214;12.276;2023-07-24T06:35:53;10.90;;;6.28;;
48993;SDS011;34804;49.214;12.276;2023-07-24T06:38:20;17.50;;;6.32;;
48993;SDS011;34804;49.214;12.276;2023-07-24T06:40:47;11.02;;;6.55;;
48993;SDS011;34804;49.214;12.276;2023-07-24T06:43:15;11.68;;;6.45;;
48993;SDS011;34804;49.214;12.276;2023-07-24T06:45:42;14.23;;;6.53;;
48993;SDS011;34804;49.214;12.276;2023-07-24T06:48:09;12.90;;;6.13;;
48993;SDS011;34804;49.214;12.276;2023-07-24T06:50:35;13.98;;;6.38;;
48993;SDS011;34804;49.214;12.276;2023-07-24T06:53:02;13.05;;;6.97;;
48993;SDS011;34804;49.214;12.276;2023-07-24T06:55:29;13.43;;;6.70;;
48993;SDS011;34804;49.214;12.276;2023-07-24T06:57:56;12.65;;;6.07;;
48993;SDS011;34804;49.214;12.276;2023-07-24T07:00:23;11.82;;;6.35;;
48993;SDS011;34804;49.214;12.276;2023-07-24T07:02:49;14.95;;;7.30;;
48993;SDS011;34804;49.214;12.276;2023-07-24T07:05:16;15.55;;;7.05;;
48993;SDS011;34804;49.214;12.276;2023-07-24T07:07:43;12.82;;;6.22;;
48993;SDS011;34804;49.214;12.276;2023-07-24T07:10:10;13.10;;;6.30;;
48993;SDS011;34804;49.214;12.276;2023-07-24T07:12:37;12.43;;;6.28;;
48993;SDS011;34804;49.214;12.276;2023-07-24T07:15:04;11.32;;;6.40;;
48993;SDS011;34804;49.214;12.276;2023-07-24T07:17:31;11.77;;;6.65;;
48993;SDS011;34804;49.214;12.276;2023-07-24T07:19:58;11.50;;;6.72;;
48993;SDS011;34804;49.214;12.276;2023-07-24T07:22:25;12.70;;;7.18;;
48993;SDS011;34804;49.214;12.276;2023-07-24T07:24:52;13.05;;;7.25;;
48993;SDS011;34804;49.214;12.276;2023-07-24T07:27:19;10.43;;;5.97;;
48993;SDS011;34804;49.214;12.276;2023-07-24T07:29:45;12.05;;;6.15;;
48993;SDS011;34804;49.214;12.276;2023-07-24T07:32:12;12.73;;;7.35;;
48993;SDS011;34804;49.214;12.276;2023-07-24T07:34:39;9.20;;;5.93;;
48993;SDS011;34804;49.214;12.276;2023-07-24T07:37:06;12.68;;;6.60;;
48993;SDS011;34804;49.214;12.276;2023-07-24T07:39:33;11.52;;;6.47;;
48993;SDS011;34804;49.214;12.276;2023-07-24T07:41:59;13.80;;;6.68;;
48993;SDS011;34804;49.214;12.276;2023-07-24T07:44:33;15.95;;;6.78;;
48993;SDS011;34804;49.214;12.276;2023-07-24T07:46:59;15.23;;;6.10;;
48993;SDS011;34804;49.214;12.276;2023-07-24T07:49:26;50.78;;;8.70;;
48993;SDS011;34804;49.214;12.276;2023-07-24T07:51:56;12.48;;;6.40;;
48993;SDS011;34804;49.214;12.276;2023-07-24T07:54:23;15.07;;;6.30;;
48993;SDS011;34804;49.214;12.276;2023-07-24T07:56:50;10.63;;;6.50;;
48993;SDS011;34804;49.214;12.276;2023-07-24T07:59:17;12.93;;;5.88;;
48993;SDS011;34804;49.214;12.276;2023-07-24T08:01:43;10.77;;;6.53;;
48993;SDS011;34804;49.214;12.276;2023-07-24T08:04:12;14.68;;;6.00;;
48993;SDS011;34804;49.214;12.276;2023-07-24T08:06:38;10.93;;;6.38;;
48993;SDS011;34804;49.214;12.276;2023-07-24T08:09:05;109.53;;;10.52;;
48993;SDS011;34804;49.214;12.276;2023-07-24T08:11:32;10.82;;;7.10;;
48993;SDS011;34804;49.214;12.276;2023-07-24T08:13:59;11.60;;;6.40;;
48993;SDS011;34804;49.214;12.276;2023-07-24T08:16:26;12.02;;;6.95;;
48993;SDS011;34804;49.214;12.276;2023-07-24T08:18:53;14.75;;;7.22;;
48993;SDS011;34804;49.214;12.276;2023-07-24T08:21:23;12.63;;;7.28;;
48993;SDS011;34804;49.214;12.276;2023-07-24T08:23:50;11.90;;;7.10;;
48993;SDS011;34804;49.214;12.276;2023-07-24T08:26:17;12.18;;;7.30;;
48993;SDS011;34804;49.214;12.276;2023-07-24T08:28:44;12.00;;;7.07;;
48993;SDS011;34804;49.214;12.276;2023-07-24T08:31:10;21.65;;;8.00;;
48993;SDS011;34804;49.214;12.276;2023-07-24T08:33:38;14.18;;;7.55;;
48993;SDS011;34804;49.214;12.276;2023-07-24T08:36:05;12.25;;;7.68;;
48993;SDS011;34804;49.214;12.276;2023-07-24T08:38:34;12.70;;;7.65;;
48993;SDS011;34804;49.214;12.276;2023-07-24T08:41:02;20.73;;;7.57;;
48993;SDS011;34804;49.214;12.276;2023-07-24T08:43:30;16.15;;;8.02;;
48993;SDS011;34804;49.214;12.276;2023-07-24T08:45:58;17.27;;;7.85;;
48993;SDS011;34804;49.214;12.276;2023-07-24T08:48:29;22.70;;;8.38;;
48993;SDS011;34804;49.214;12.276;2023-07-24T08:53:35;27.35;;;7.45;;
48993;SDS011;34804;49.214;12.276;2023-07-24T08:56:03;11.95;;;7.13;;
48993;SDS011;34804;49.214;12.276;2023-07-24T08:58:32;27.45;;;8.23;;
48993;SDS011;34804;49.214;12.276;2023-07-24T09:01:01;20.02;;;7.82;;
48993;SDS011;34804;49.214;12.276;2023-07-24T09:03:30;15.38;;;7.40;;
48993;SDS011;34804;49.214;12.276;2023-07-24T09:05:58;12.88;;;6.82;;
48993;SDS011;34804;49.214;12.276;2023-07-24T09:08:31;14.43;;;6.78;;
48993;SDS011;34804;49.214;12.276;2023-07-24T09:11:01;14.27;;;7.10;;
48993;SDS011;34804;49.214;12.276;2023-07-24T09:13:29;23.05;;;8.10;;
48993;SDS011;34804;49.214;12.276;2023-07-24T09:15:57;15.38;;;7.00;;
48993;SDS011;34804;49.214;12.276;2023-07-24T09:18:25;14.55;;;7.38;;
48993;SDS011;34804;49.214;12.276;2023-07-24T09:20:53;45.35;;;7.80;;
48993;SDS011;34804;49.214;12.276;2023-07-24T09:23:27;18.95;;;7.68;;
48993;SDS011;34804;49.214;12.276;2023-07-24T09:25:54;25.02;;;8.02;;
48993;SDS011;34804;49.214;12.276;2023-07-24T09:28:21;14.82;;;7.50;;
48993;SDS011;34804;49.214;12.276;2023-07-24T09:30:56;12.88;;;6.88;;
48993;SDS011;34804;49.214;12.276;2023-07-24T09:33:40;14.77;;;7.00;;
48993;SDS011;34804;49.214;12.276;2023-07-24T09:36:14;13.95;;;7.63;;
48993;SDS011;34804;49.214;12.276;2023-07-24T09:38:44;12.57;;;6.75;;
48993;SDS011;34804;49.214;12.276;2023-07-24T09:41:14;12.37;;;7.03;;
48993;SDS011;34804;49.214;12.276;2023-07-24T09:43:42;12.18;;;6.70;;
48993;SDS011;34804;49.214;12.276;2023-07-24T09:46:09;12.77;;;6.53;;
48993;SDS011;34804;49.214;12.276;2023-07-24T09:48:38;13.70;;;7.10;;
48993;SDS011;34804;49.214;12.276;2023-07-24T09:51:25;12.40;;;6.40;;
48993;SDS011;34804;49.214;12.276;2023-07-24T09:53:55;9.98;;;6.10;;
48993;SDS011;34804;49.214;12.276;2023-07-24T09:56:24;11.55;;;6.30;;
48993;SDS011;34804;49.214;12.276;2023-07-24T09:59:13;10.57;;;6.38;;
48993;SDS011;34804;49.214;12.276;2023-07-24T10:01:40;12.02;;;6.63;;
48993;SDS011;34804;49.214;12.276;2023-07-24T10:04:09;10.52;;;5.78;;
48993;SDS011;34804;49.214;12.276;2023-07-24T10:06:36;10.25;;;6.05;;
48993;SDS011;34804;49.214;12.276;2023-07-24T10:09:05;10.70;;;6.70;;
48993;SDS011;34804;49.214;12.276;2023-07-24T10:11:34;13.55;;;5.97;;
48993;SDS011;34804;49.214;12.276;2023-07-24T10:14:03;10.48;;;5.75;;
48993;SDS011;34804;49.214;12.276;2023-07-24T10:16:30;9.60;;;4.88;;
48993;SDS011;34804;49.214;12.276;2023-07-24T10:18:58;9.95;;;5.30;;
48993;SDS011;34804;49.214;12.276;2023-07-24T10:21:28;8.23;;;5.18;;
48993;SDS011;34804;49.214;12.276;2023-07-24T10:23:59;8.98;;;4.97;;
48993;SDS011;34804;49.214;12.276;2023-07-24T10:26:26;10.77;;;4.82;;
48993;SDS011;34804;49.214;12.276;2023-07-24T10:28:53;45.30;;;7.07;;
48993;SDS011;34804;49.214;12.276;2023-07-24T10:31:24;19.50;;;5.35;;
48993;SDS011;34804;49.214;12.276;2023-07-24T10:33:59;8.25;;;4.45;;
48993;SDS011;34804;49.214;12.276;2023-07-24T10:36:34;10.25;;;4.80;;
48993;SDS011;34804;49.214;12.276;2023-07-24T10:39:02;15.07;;;4.75;;
48993;SDS011;34804;49.214;12.276;2023-07-24T10:41:39;7.80;;;4.63;;
48993;SDS011;34804;49.214;12.276;2023-07-24T10:44:06;13.70;;;4.55;;
48993;SDS011;34804;49.214;12.276;2023-07-24T10:46:39;7.80;;;4.10;;
48993;SDS011;34804;49.214;12.276;2023-07-24T10:49:08;9.80;;;4.20;;
48993;SDS011;34804;49.214;12.276;2023-07-24T10:51:35;8.38;;;4.25;;
48993;SDS011;34804;49.214;12.276;2023-07-24T10:54:04;12.15;;;3.80;;
48993;SDS011;34804;49.214;12.276;2023-07-24T10:56:37;6.45;;;3.50;;
48993;SDS011;34804;49.214;12.276;2023-07-24T10:59:04;8.13;;;3.53;;
48993;SDS011;34804;49.214;12.276;2023-07-24T11:01:31;6.00;;;3.55;;
48993;SDS011;34804;49.214;12.276;2023-07-24T11:04:00;6.57;;;3.70;;
48993;SDS011;34804;49.214;12.276;2023-07-24T11:06:29;6.70;;;3.45;;
48993;SDS011;34804;49.214;12.276;2023-07-24T11:08:57;7.13;;;4.00;;
48993;SDS011;34804;49.214;12.276;2023-07-24T11:11:32;5.80;;;3.58;;
48993;SDS011;34804;49.214;12.276;2023-07-24T11:14:01;8.00;;;4.40;;
48993;SDS011;34804;49.214;12.276;2023-07-24T11:16:29;7.68;;;4.30;;
48993;SDS011;34804;49.214;12.276;2023-07-24T11:19:00;7.43;;;4.22;;
48993;SDS011;34804;49.214;12.276;2023-07-24T11:21:27;8.40;;;4.72;;
48993;SDS011;34804;49.214;12.276;2023-07-24T11:23:56;9.23;;;4.50;;
48993;SDS011;34804;49.214;12.276;2023-07-24T11:26:23;8.00;;;4.18;;
48993;SDS011;34804;49.214;12.276;2023-07-24T11:28:53;8.38;;;4.60;;
48993;SDS011;34804;49.214;12.276;2023-07-24T11:31:22;9.40;;;4.85;;
48993;SDS011;34804;49.214;12.276;2023-07-24T11:33:49;10.18;;;4.63;;
48993;SDS011;34804;49.214;12.276;2023-07-24T11:36:18;7.82;;;4.78;;
48993;SDS011;34804;49.214;12.276;2023-07-24T11:38:45;7.55;;;4.10;;
48993;SDS011;34804;49.214;12.276;2023-07-24T11:41:13;8.13;;;4.15;;
48993;SDS011;34804;49.214;12.276;2023-07-24T11:43:47;8.90;;;4.70;;
48993;SDS011;34804;49.214;12.276;2023-07-24T11:46:25;8.00;;;4.43;;
48993;SDS011;34804;49.214;12.276;2023-07-24T11:48:53;9.07;;;4.65;;
48993;SDS011;34804;49.214;12.276;2023-07-24T11:51:25;8.05;;;4.50;;
48993;SDS011;34804;49.214;12.276;2023-07-24T11:54:16;8.88;;;4.65;;
48993;SDS011;34804;49.214;12.276;2023-07-24T11:56:42;9.88;;;5.22;;
48993;SDS011;34804;49.214;12.276;2023-07-24T11:59:09;8.70;;;4.63;;
48993;SDS011;34804;49.214;12.276;2023-07-24T12:01:48;8.95;;;4.95;;
48993;SDS011;34804;49.214;12.276;2023-07-24T12:04:15;8.02;;;4.68;;
48993;SDS011;34804;49.214;12.276;2023-07-24T12:06:45;7.97;;;4.68;;
48993;SDS011;34804;49.214;12.276;2023-07-24T12:09:15;9.85;;;5.00;;
48993;SDS011;34804;49.214;12.276;2023-07-24T12:11:42;8.43;;;5.13;;
48993;SDS011;34804;49.214;12.276;2023-07-24T12:14:14;12.18;;;5.18;;
48993;SDS011;34804;49.214;12.276;2023-07-24T12:16:42;7.75;;;5.00;;
48993;SDS011;34804;49.214;12.276;2023-07-24T12:19:11;11.65;;;5.43;;
48993;SDS011;34804;49.214;12.276;2023-07-24T12:21:38;8.95;;;5.18;;
48993;SDS011;34804;49.214;12.276;2023-07-24T12:24:05;8.35;;;5.13;;
48993;SDS011;34804;49.214;12.276;2023-07-24T12:26:32;8.90;;;5.22;;
48993;SDS011;34804;49.214;12.276;2023-07-24T12:28:58;8.55;;;5.03;;
48993;SDS011;34804;49.214;12.276;2023-07-24T12:31:29;11.95;;;6.80;;
48993;SDS011;34804;49.214;12.276;2023-07-24T12:33:56;16.20;;;7.10;;
48993;SDS011;34804;49.214;12.276;2023-07-24T12:36:23;18.02;;;7.93;;
48993;SDS011;34804;49.214;12.276;2023-07-24T12:38:50;27.48;;;9.60;;
48993;SDS011;34804;49.214;12.276;2023-07-24T12:41:17;17.33;;;8.55;;
48993;SDS011;34804;49.214;12.276;2023-07-24T12:43:47;21.83;;;9.55;;
48993;SDS011;34804;49.214;12.276;2023-07-24T12:46:14;17.55;;;9.93;;
48993;SDS011;34804;49.214;12.276;2023-07-24T12:48:41;20.75;;;9.05;;
48993;SDS011;34804;49.214;12.276;2023-07-24T12:51:08;16.20;;;8.95;;
48993;SDS011;34804;49.214;12.276;2023-07-24T12:53:35;15.15;;;8.70;;
48993;SDS011;34804;49.214;12.276;2023-07-24T12:56:21;14.98;;;8.27;;
48993;SDS011;34804;49.214;12.276;2023-07-24T12:58:49;16.25;;;9.40;;
48993;SDS011;34804;49.214;12.276;2023-07-24T13:01:20;16.65;;;9.25;;
48993;SDS011;34804;49.214;12.276;2023-07-24T13:03:47;16.60;;;8.98;;
48993;SDS011;34804;49.214;12.276;2023-07-24T13:06:14;15.38;;;8.68;;
48993;SDS011;34804;49.214;12.276;2023-07-24T13:08:43;16.45;;;8.98;;
48993;SDS011;34804;49.214;12.276;2023-07-24T13:11:10;18.85;;;9.25;;
48993;SDS011;34804;49.214;12.276;2023-07-24T13:13:37;14.00;;;7.70;;
48993;SDS011;34804;49.214;12.276;2023-07-24T13:16:04;12.90;;;7.95;;
48993;SDS011;34804;49.214;12.276;2023-07-24T13:18:31;11.20;;;6.88;;
48993;SDS011;34804;49.214;12.276;2023-07-24T13:20:58;10.43;;;6.25;;
48993;SDS011;34804;49.214;12.276;2023-07-24T13:23:25;10.60;;;6.30;;
48993;SDS011;34804;49.214;12.276;2023-07-24T13:25:52;9.80;;;5.63;;
48993;SDS011;34804;49.214;12.276;2023-07-24T13:28:19;11.63;;;6.65;;
48993;SDS011;34804;49.214;12.276;2023-07-24T13:30:46;11.38;;;7.13;;
48993;SDS011;34804;49.214;12.276;2023-07-24T13:33:13;13.60;;;7.07;;
48993;SDS011;34804;49.214;12.276;2023-07-24T13:35:43;14.93;;;6.72;;
48993;SDS011;34804;49.214;12.276;2023-07-24T13:38:10;12.27;;;6.40;;
48993;SDS011;34804;49.214;12.276;2023-07-24T13:40:38;11.23;;;6.60;;
48993;SDS011;34804;49.214;12.276;2023-07-24T13:43:05;10.70;;;6.00;;
48993;SDS011;34804;49.214;12.276;2023-07-24T13:45:32;10.70;;;6.35;;
48993;SDS011;34804;49.214;12.276;2023-07-24T13:48:01;12.68;;;6.40;;
48993;SDS011;34804;49.214;12.276;2023-07-24T13:50:28;10.60;;;6.35;;
48993;SDS011;34804;49.214;12.276;2023-07-24T13:52:55;10.48;;;6.50;;
48993;SDS011;34804;49.214;12.276;2023-07-24T13:55:22;13.65;;;6.30;;
48993;SDS011;34804;49.214;12.276;2023-07-24T13:57:49;10.93;;;6.25;;
48993;SDS011;34804;49.214;12.276;2023-07-24T14:00:16;10.15;;;6.18;;
48993;SDS011;34804;49.214;12.276;2023-07-24T14:02:43;10.55;;;5.75;;
48993;SDS011;34804;49.214;12.276;2023-07-24T14:05:10;9.82;;;5.70;;
48993;SDS011;34804;49.214;12.276;2023-07-24T14:07:37;9.60;;;5.28;;
48993;SDS011;34804;49.214;12.276;2023-07-24T14:10:05;9.30;;;5.95;;
48993;SDS011;34804;49.214;12.276;2023-07-24T14:12:32;9.27;;;5.50;;
48993;SDS011;34804;49.214;12.276;2023-07-24T14:15:02;10.63;;;5.97;;
48993;SDS011;34804;49.214;12.276;2023-07-24T14:17:30;9.25;;;5.65;;
48993;SDS011;34804;49.214;12.276;2023-07-24T14:19:58;9.77;;;5.43;;
48993;SDS011;34804;49.214;12.276;2023-07-24T14:22:24;8.55;;;5.80;;
48993;SDS011;34804;49.214;12.276;2023-07-24T14:24:53;10.25;;;5.63;;
48993;SDS011;34804;49.214;12.276;2023-07-24T14:27:20;9.88;;;5.55;;
48993;SDS011;34804;49.214;12.276;2023-07-24T14:29:47;10.55;;;5.25;;